Time;durP1;ratioP1;P1;durP2;ratioP2;P2;SDS_P1;SDS_P2;PMS_P1;PMS_P2;Temp;Humidity;BMP_temperature;BMP_pressure;BME280_temperature;BME280_humidity;BME280_pressure;Samples;Min_cycle;Max_cycle;Signal;HPM_P1;HPM_P2
2021/05/23 00:00:39;;;;;;;8.75;8.05;;;12.20;99.90;;;;;;5049231;28;20153;-67
2021/05/23 00:03:10;;;;;;;8.73;7.65;;;12.20;99.90;;;;;;5049940;28;20412;-67
2021/05/23 00:05:39;;;;;;;8.82;8.02;;;12.10;99.90;;;;;;5052194;28;20400;-67
2021/05/23 00:08:10;;;;;;;8.63;7.93;;;12.20;99.90;;;;;;5038381;28;20033;-68
2021/05/23 00:10:49;;;;;;;8.32;7.72;;;12.20;99.90;;;;;;5060131;28;20048;-68
2021/05/23 00:13:21;;;;;;;8.50;7.70;;;12.20;99.90;;;;;;5064496;28;20132;-69
2021/05/23 00:16:08;;;;;;;8.07;7.47;;;12.10;99.90;;;;;;5042563;28;20140;-69
2021/05/23 00:18:39;;;;;;;8.32;7.57;;;12.10;99.90;;;;;;5051262;28;20074;-69
2021/05/23 00:21:07;;;;;;;8.80;8.10;;;12.10;99.90;;;;;;5036569;28;20041;-69
2021/05/23 00:23:34;;;;;;;8.48;7.78;;;12.10;99.90;;;;;;5032377;28;20045;-69
2021/05/23 00:26:03;;;;;;;12.00;7.95;;;12.00;99.90;;;;;;5053412;28;20099;-69
2021/05/23 00:28:31;;;;;;;8.90;7.97;;;12.00;99.90;;;;;;5053654;28;20041;-69
2021/05/23 00:31:03;;;;;;;8.50;7.70;;;11.90;99.90;;;;;;5053265;28;20048;-69
2021/05/23 00:33:30;;;;;;;8.30;7.60;;;11.80;99.90;;;;;;5047177;28;20047;-69
2021/05/23 00:35:58;;;;;;;8.27;7.50;;;11.80;99.90;;;;;;5055579;28;20494;-69
2021/05/23 00:38:26;;;;;;;8.70;7.90;;;11.70;99.90;;;;;;5049849;28;20067;-69
2021/05/23 00:40:55;;;;;;;9.15;8.35;;;11.70;99.90;;;;;;5066462;28;20049;-69
2021/05/23 00:43:23;;;;;;;8.48;7.78;;;11.70;99.90;;;;;;5056960;28;20106;-69
2021/05/23 00:45:51;;;;;;;8.68;7.97;;;11.70;99.90;;;;;;5054055;28;20045;-69
2021/05/23 00:48:20;;;;;;;8.88;7.97;;;11.70;99.90;;;;;;5056105;28;20048;-69
2021/05/23 00:50:49;;;;;;;8.27;7.68;;;11.60;99.90;;;;;;5054685;28;20041;-69
2021/05/23 00:53:17;;;;;;;8.63;7.72;;;11.70;99.90;;;;;;5036626;28;20072;-69
2021/05/23 00:55:45;;;;;;;8.60;7.88;;;11.70;99.90;;;;;;5034743;28;20571;-69
2021/05/23 00:58:13;;;;;;;8.25;7.65;;;11.70;99.90;;;;;;5049568;28;20045;-69
2021/05/23 01:00:44;;;;;;;8.57;7.97;;;11.70;99.90;;;;;;5051093;28;20465;-69
2021/05/23 01:03:27;;;;;;;8.18;7.50;;;11.60;99.90;;;;;;5050794;28;20126;-69
2021/05/23 01:05:57;;;;;;;8.38;7.63;;;11.60;99.90;;;;;;5047057;28;20053;-69
2021/05/23 01:08:25;;;;;;;8.40;7.70;;;11.60;99.90;;;;;;5050088;28;20041;-69
2021/05/23 01:11:04;;;;;;;8.93;8.07;;;11.60;99.90;;;;;;5053166;28;20049;-69
2021/05/23 01:13:34;;;;;;;8.20;7.60;;;11.60;99.90;;;;;;5069229;28;20052;-69
2021/05/23 01:16:11;;;;;;;8.40;7.60;;;11.60;99.90;;;;;;5052174;28;20506;-69
2021/05/23 01:18:50;;;;;;;8.52;7.90;;;11.60;99.90;;;;;;5053209;28;20095;-68
2021/05/23 01:21:20;;;;;;;8.32;7.63;;;11.60;99.90;;;;;;5050352;28;20515;-68
2021/05/23 01:23:53;;;;;;;9.13;7.78;;;11.50;99.90;;;;;;5048454;28;20427;-68
2021/05/23 01:26:23;;;;;;;8.80;7.90;;;11.50;99.90;;;;;;5049112;28;20558;-68
2021/05/23 01:28:57;;;;;;;10.52;7.70;;;11.60;99.90;;;;;;5031894;28;20079;-68
2021/05/23 01:31:28;;;;;;;8.23;7.53;;;11.60;99.90;;;;;;5049658;28;20091;-67
2021/05/23 01:33:59;;;;;;;8.15;7.50;;;11.60;99.90;;;;;;5050830;28;20107;-67
2021/05/23 01:36:30;;;;;;;8.40;7.70;;;11.60;99.90;;;;;;5051190;28;20049;-68
2021/05/23 01:38:59;;;;;;;8.15;7.50;;;11.70;99.90;;;;;;5046299;28;20119;-67
2021/05/23 01:41:29;;;;;;;8.82;7.88;;;11.80;99.90;;;;;;5052468;28;20102;-69
2021/05/23 01:43:58;;;;;;;8.57;7.88;;;11.80;99.90;;;;;;5051738;28;20048;-68
2021/05/23 01:46:27;;;;;;;8.40;7.60;;;11.80;99.90;;;;;;5051468;28;20158;-68
2021/05/23 01:48:55;;;;;;;8.57;7.70;;;11.80;99.90;;;;;;5050123;28;20067;-68
2021/05/23 01:51:22;;;;;;;8.60;7.70;;;11.80;99.90;;;;;;5052868;28;20087;-69
2021/05/23 01:53:50;;;;;;;8.57;7.78;;;11.80;99.90;;;;;;5053985;28;20083;-67
2021/05/23 01:56:22;;;;;;;8.55;7.78;;;11.80;99.90;;;;;;5050501;28;20083;-68
2021/05/23 01:58:49;;;;;;;9.23;8.10;;;11.90;99.90;;;;;;5053331;28;20439;-67
2021/05/23 02:01:21;;;;;;;8.43;7.80;;;11.90;99.90;;;;;;5050107;28;20053;-68
2021/05/23 02:03:49;;;;;;;8.30;7.65;;;11.90;99.90;;;;;;5051300;28;20406;-67
2021/05/23 02:06:16;;;;;;;8.20;7.45;;;11.90;99.90;;;;;;5051703;28;20041;-68
2021/05/23 02:08:44;;;;;;;7.78;7.28;;;11.90;99.90;;;;;;5050914;28;20175;-68
2021/05/23 02:11:11;;;;;;;8.07;7.40;;;11.80;99.90;;;;;;5049071;28;20092;-68
2021/05/23 02:13:39;;;;;;;8.90;7.68;;;11.80;99.90;;;;;;5048695;28;20566;-68
2021/05/23 02:16:07;;;;;;;9.13;7.35;;;11.80;99.90;;;;;;5052616;28;20041;-67
2021/05/23 02:18:37;;;;;;;8.50;7.80;;;11.90;99.90;;;;;;5052607;28;20091;-68
2021/05/23 02:21:06;;;;;;;8.93;7.40;;;11.90;99.90;;;;;;5051208;28;20047;-68
2021/05/23 02:23:33;;;;;;;8.10;7.40;;;11.90;99.90;;;;;;5050213;28;20045;-68
2021/05/23 02:26:01;;;;;;;8.20;7.60;;;11.90;99.90;;;;;;5049286;28;20052;-68
2021/05/23 02:28:28;;;;;;;8.18;7.40;;;11.90;99.90;;;;;;5049757;28;20066;-68
2021/05/23 02:30:56;;;;;;;8.43;7.63;;;11.90;99.90;;;;;;5051347;28;20049;-68
2021/05/23 02:33:27;;;;;;;8.20;7.50;;;11.90;99.90;;;;;;5049206;28;20399;-68
2021/05/23 02:35:56;;;;;;;8.30;7.35;;;12.00;99.90;;;;;;5049123;28;20056;-68
2021/05/23 02:38:23;;;;;;;8.55;7.75;;;11.90;99.90;;;;;;5050050;28;20041;-68
2021/05/23 02:40:51;;;;;;;8.15;7.45;;;12.00;99.90;;;;;;5051549;28;20069;-68
2021/05/23 02:43:20;;;;;;;7.90;7.30;;;12.00;99.90;;;;;;5051447;28;20665;-68
2021/05/23 02:45:47;;;;;;;8.45;7.72;;;11.90;99.90;;;;;;5050680;28;20057;-68
2021/05/23 02:48:16;;;;;;;7.70;7.10;;;11.90;99.90;;;;;;5051075;28;20044;-68
2021/05/23 02:50:45;;;;;;;7.60;7.07;;;11.90;99.90;;;;;;5048330;28;20090;-68
2021/05/23 02:53:13;;;;;;;7.50;6.90;;;11.90;99.90;;;;;;5051196;28;20098;-68
2021/05/23 02:55:44;;;;;;;8.02;7.20;;;11.80;99.90;;;;;;5049086;28;20518;-69
2021/05/23 02:58:12;;;;;;;8.07;7.28;;;11.80;99.90;;;;;;5045871;28;20052;-69
2021/05/23 03:00:41;;;;;;;11.55;7.15;;;11.70;99.90;;;;;;5051622;28;20055;-69
2021/05/23 03:03:09;;;;;;;7.47;6.88;;;11.60;99.90;;;;;;5048690;28;20056;-68
2021/05/23 03:05:37;;;;;;;7.55;6.82;;;11.60;99.90;;;;;;5050866;28;20083;-68
2021/05/23 03:08:06;;;;;;;7.72;7.03;;;11.60;99.90;;;;;;5047116;28;20037;-68
2021/05/23 03:10:44;;;;;;;8.43;7.15;;;11.70;99.90;;;;;;5049414;28;20049;-69
2021/05/23 03:13:12;;;;;;;7.25;6.65;;;11.60;99.90;;;;;;5052260;28;20045;-68
2021/05/23 03:15:40;;;;;;;7.90;7.15;;;11.60;99.90;;;;;;5050413;28;20087;-68
2021/05/23 03:18:08;;;;;;;8.40;6.75;;;11.60;99.90;;;;;;5048962;28;20045;-69
2021/05/23 03:20:39;;;;;;;6.85;6.25;;;11.60;99.90;;;;;;5048193;28;20148;-68
2021/05/23 03:23:06;;;;;;;7.18;6.30;;;11.50;99.90;;;;;;5048814;28;20044;-68
2021/05/23 03:25:34;;;;;;;6.30;5.80;;;11.40;99.90;;;;;;5049882;28;20111;-67
2021/05/23 03:28:04;;;;;;;6.20;5.57;;;11.30;99.90;;;;;;5048364;28;20048;-68
2021/05/23 03:30:38;;;;;;;6.43;5.43;;;11.10;99.90;;;;;;5050609;28;20040;-68
2021/05/23 03:33:06;;;;;;;5.93;4.97;;;10.90;99.90;;;;;;5048355;28;20053;-69
2021/05/23 03:35:35;;;;;;;9.00;5.30;;;10.80;99.90;;;;;;5046258;28;20403;-68
2021/05/23 03:38:03;;;;;;;7.18;4.80;;;10.80;99.90;;;;;;5051214;28;20052;-69
2021/05/23 03:40:31;;;;;;;6.18;4.57;;;10.70;99.90;;;;;;5045185;28;20060;-69
2021/05/23 03:42:59;;;;;;;5.15;4.22;;;10.70;99.90;;;;;;5048522;28;20049;-68
2021/05/23 03:45:26;;;;;;;5.72;3.50;;;10.60;99.90;;;;;;5048652;28;20041;-68
2021/05/23 03:47:54;;;;;;;4.72;4.22;;;10.60;99.90;;;;;;5048433;28;20049;-67
2021/05/23 03:50:23;;;;;;;4.97;4.20;;;10.60;99.90;;;;;;5049593;28;20434;-68
2021/05/23 03:52:54;;;;;;;4.80;3.65;;;10.60;99.90;;;;;;5051794;28;20060;-68
2021/05/23 03:55:22;;;;;;;5.15;3.67;;;10.60;99.90;;;;;;5046119;28;20385;-68
2021/05/23 03:57:50;;;;;;;5.30;4.07;;;10.70;99.90;;;;;;5049174;28;20057;-67
2021/05/23 04:00:19;;;;;;;5.55;3.80;;;10.60;99.90;;;;;;5049195;28;20053;-67
2021/05/23 04:02:52;;;;;;;4.78;3.88;;;10.60;99.90;;;;;;5049337;28;20057;-68
2021/05/23 04:05:21;;;;;;;4.82;3.50;;;10.50;99.90;;;;;;5047869;28;20064;-68
2021/05/23 04:07:50;;;;;;;4.15;3.70;;;10.50;99.90;;;;;;5048987;28;21197;-68
2021/05/23 04:10:20;;;;;;;4.65;3.70;;;10.50;99.90;;;;;;5050958;28;20090;-68
2021/05/23 04:12:49;;;;;;;4.07;3.10;;;10.60;99.90;;;;;;5050813;28;20049;-68
2021/05/23 04:15:18;;;;;;;4.72;3.22;;;10.60;99.90;;;;;;5047103;28;20496;-68
2021/05/23 04:17:46;;;;;;;6.45;3.90;;;10.60;99.90;;;;;;5028408;28;20048;-67
2021/05/23 04:20:16;;;;;;;7.13;3.67;;;10.70;99.90;;;;;;5047739;28;20052;-68
2021/05/23 04:22:45;;;;;;;5.97;3.38;;;10.70;99.90;;;;;;5043034;28;20118;-69
2021/05/23 04:25:14;;;;;;;4.25;3.22;;;10.80;99.90;;;;;;5046809;28;20141;-67
2021/05/23 04:27:44;;;;;;;7.22;3.67;;;10.80;99.90;;;;;;5043964;28;20529;-67
2021/05/23 04:30:12;;;;;;;4.05;3.42;;;10.80;99.90;;;;;;5048803;28;20450;-67
2021/05/23 04:32:40;;;;;;;3.53;3.22;;;10.80;99.90;;;;;;5061484;28;20123;-67
2021/05/23 04:35:10;;;;;;;5.38;3.33;;;10.70;99.90;;;;;;5031147;28;20073;-67
2021/05/23 04:37:38;;;;;;;4.22;3.38;;;10.70;99.90;;;;;;5047517;28;20368;-67
2021/05/23 04:40:06;;;;;;;4.35;3.45;;;10.60;99.90;;;;;;5046994;28;20527;-68
2021/05/23 04:42:34;;;;;;;6.00;3.55;;;10.60;99.90;;;;;;5046870;28;20410;-69
2021/05/23 04:45:21;;;;;;;6.57;2.88;;;10.60;99.90;;;;;;5049690;28;20067;-68
2021/05/23 04:47:50;;;;;;;4.20;3.22;;;10.50;99.90;;;;;;5047573;28;20065;-68
2021/05/23 04:50:17;;;;;;;7.55;3.40;;;10.50;99.90;;;;;;5047091;28;20045;-68
2021/05/23 04:52:45;;;;;;;4.60;2.88;;;10.60;99.90;;;;;;5053426;28;20049;-69
2021/05/23 04:55:13;;;;;;;5.03;3.30;;;10.60;99.90;;;;;;5052863;28;20041;-68
2021/05/23 04:57:40;;;;;;;5.95;3.33;;;10.60;99.90;;;;;;5052388;28;20053;-68
2021/05/23 05:00:11;;;;;;;6.22;3.05;;;10.60;99.90;;;;;;5051146;28;20053;-68
2021/05/23 05:02:43;;;;;;;4.68;3.10;;;10.60;99.90;;;;;;5050527;28;20094;-69
2021/05/23 05:05:11;;;;;;;;;;;10.50;99.90;;;;;;5050480;28;20049;-67
2021/05/23 05:07:40;;;;;;;5.30;3.03;;;10.50;99.90;;;;;;5053500;28;20036;-67
2021/05/23 05:10:08;;;;;;;4.72;3.30;;;10.60;99.90;;;;;;5052011;28;20132;-67
2021/05/23 05:12:35;;;;;;;4.43;2.90;;;10.50;99.90;;;;;;5052715;28;20041;-68
2021/05/23 05:15:05;;;;;;;4.55;2.90;;;10.60;99.90;;;;;;5052104;28;20061;-68
2021/05/23 05:17:32;;;;;;;4.28;3.10;;;10.70;99.90;;;;;;5050842;28;20048;-67
2021/05/23 05:20:01;;;;;;;4.20;3.10;;;10.60;99.90;;;;;;5052215;28;20060;-67
2021/05/23 05:22:28;;;;;;;3.58;2.80;;;10.70;99.90;;;;;;5049260;28;20059;-67
2021/05/23 05:24:56;;;;;;;3.72;3.08;;;10.70;99.90;;;;;;5049007;28;20418;-69
2021/05/23 05:27:26;;;;;;;5.35;2.80;;;10.70;99.90;;;;;;5047970;28;20179;-67
2021/05/23 05:29:54;;;;;;;4.20;2.97;;;10.60;99.90;;;;;;5045532;28;20075;-67
2021/05/23 05:32:21;;;;;;;3.80;3.00;;;10.60;99.90;;;;;;5049797;28;20048;-67
2021/05/23 05:34:49;;;;;;;4.93;3.03;;;10.60;99.90;;;;;;5048516;28;20478;-66
2021/05/23 05:37:16;;;;;;;4.40;2.92;;;10.60;99.90;;;;;;5051518;28;20110;-67
2021/05/23 05:39:43;;;;;;;4.05;2.80;;;10.60;99.90;;;;;;5048905;28;20648;-67
2021/05/23 05:42:11;;;;;;;3.58;2.67;;;10.50;99.90;;;;;;5047628;28;20048;-66
2021/05/23 05:44:38;;;;;;;4.05;3.00;;;10.50;99.90;;;;;;5052345;28;20119;-68
2021/05/23 05:47:05;;;;;;;4.13;2.67;;;10.50;99.90;;;;;;5049127;28;20041;-68
2021/05/23 05:49:36;;;;;;;5.82;3.00;;;10.60;99.90;;;;;;5052261;28;20053;-68
2021/05/23 05:52:06;;;;;;;5.30;2.75;;;10.60;99.90;;;;;;5049833;28;20132;-67
2021/05/23 05:54:33;;;;;;;6.18;3.03;;;10.60;99.90;;;;;;5051759;28;20037;-68
2021/05/23 05:57:01;;;;;;;3.35;2.60;;;10.70;99.90;;;;;;5048182;28;20403;-67
2021/05/23 05:59:44;;;;;;;3.95;2.60;;;10.80;99.90;;;;;;5051856;28;20045;-67
2021/05/23 06:02:11;;;;;;;4.85;2.80;;;10.90;99.90;;;;;;5050911;28;20122;-68
2021/05/23 06:04:38;;;;;;;3.70;2.63;;;10.90;99.90;;;;;;5047755;28;20107;-67
2021/05/23 06:07:06;;;;;;;6.32;2.80;;;10.90;99.90;;;;;;5050279;28;20052;-67
2021/05/23 06:09:34;;;;;;;3.67;2.72;;;10.90;99.90;;;;;;5050488;28;20083;-67
2021/05/23 06:12:01;;;;;;;4.75;2.80;;;10.90;99.90;;;;;;5052755;28;20435;-68
2021/05/23 06:14:28;;;;;;;3.53;2.60;;;10.90;99.90;;;;;;5048330;28;20053;-67
2021/05/23 06:16:56;;;;;;;6.05;3.03;;;11.00;99.90;;;;;;5050455;28;20057;-67
2021/05/23 06:19:23;;;;;;;3.85;2.47;;;10.90;99.90;;;;;;5049965;28;20238;-67
2021/05/23 06:21:51;;;;;;;5.78;3.50;;;11.00;99.90;;;;;;5047224;28;20071;-67
2021/05/23 06:24:19;;;;;;;4.55;2.50;;;11.10;99.90;;;;;;5051768;28;20415;-67
2021/05/23 06:26:46;;;;;;;4.57;2.80;;;11.10;99.90;;;;;;5052693;28;20489;-69
2021/05/23 06:29:13;;;;;;;3.78;2.70;;;11.10;99.90;;;;;;5051077;28;20052;-69
2021/05/23 06:31:41;;;;;;;3.85;2.78;;;11.20;99.90;;;;;;5045668;28;20426;-67
2021/05/23 06:34:08;;;;;;;4.68;2.70;;;11.30;99.90;;;;;;5048102;28;20502;-68
2021/05/23 06:36:37;;;;;;;5.50;2.78;;;11.50;99.90;;;;;;5048941;28;20056;-68
2021/05/23 06:39:06;;;;;;;5.00;2.53;;;11.60;99.90;;;;;;5050595;28;20454;-69
2021/05/23 06:41:34;;;;;;;5.95;2.80;;;11.80;99.90;;;;;;5048726;28;20056;-69
2021/05/23 06:44:02;;;;;;;4.75;3.28;;;11.90;99.90;;;;;;5048681;28;20466;-68
2021/05/23 06:46:29;;;;;;;5.93;3.70;;;11.80;99.90;;;;;;5047407;28;20052;-68
2021/05/23 06:48:57;;;;;;;5.28;3.78;;;11.80;99.90;;;;;;5049556;28;20075;-67
2021/05/23 06:51:24;;;;;;;4.72;3.25;;;12.00;99.90;;;;;;5029240;28;20073;-68
2021/05/23 06:53:51;;;;;;;3.30;2.80;;;12.00;99.90;;;;;;5051877;28;20048;-68
2021/05/23 06:56:19;;;;;;;3.63;3.00;;;12.10;99.90;;;;;;5046497;28;20091;-68
2021/05/23 06:58:46;;;;;;;6.70;3.38;;;12.10;99.90;;;;;;5047659;28;20083;-68
2021/05/23 07:01:14;;;;;;;5.68;3.00;;;12.20;99.90;;;;;;5048820;28;20045;-69
2021/05/23 07:03:41;;;;;;;4.63;3.17;;;12.30;99.90;;;;;;5049631;28;20052;-68
2021/05/23 07:06:09;;;;;;;3.70;2.88;;;12.40;99.90;;;;;;5046525;28;20087;-68
2021/05/23 07:08:36;;;;;;;6.90;3.38;;;12.40;99.90;;;;;;5047448;28;20049;-68
2021/05/23 07:11:03;;;;;;;5.97;3.17;;;12.50;99.90;;;;;;5046044;28;20063;-68
2021/05/23 07:13:31;;;;;;;4.07;3.38;;;12.50;99.90;;;;;;5050997;28;20094;-68
2021/05/23 07:15:58;;;;;;;5.85;3.30;;;12.70;99.90;;;;;;5048793;28;20049;-68
2021/05/23 07:18:26;;;;;;;5.35;3.60;;;12.80;99.90;;;;;;5044097;28;20052;-68
2021/05/23 07:20:55;;;;;;;3.92;3.40;;;12.80;99.90;;;;;;5049845;28;20091;-68
2021/05/23 07:23:23;;;;;;;5.45;3.63;;;12.90;99.90;;;;;;5044060;28;20061;-69
2021/05/23 07:25:50;;;;;;;4.30;3.90;;;12.90;99.90;;;;;;5046387;28;20061;-68
2021/05/23 07:28:17;;;;;;;4.25;3.85;;;13.00;99.90;;;;;;5047382;28;20041;-68
2021/05/23 07:30:45;;;;;;;5.05;3.60;;;13.40;99.90;;;;;;5048586;28;20067;-68
2021/05/23 07:33:17;;;;;;;5.20;3.70;;;13.50;99.90;;;;;;5049519;28;20487;-68
2021/05/23 07:35:44;;;;;;;4.30;3.78;;;13.30;99.90;;;;;;5045334;28;20091;-68
2021/05/23 07:38:12;;;;;;;7.38;4.10;;;13.60;99.90;;;;;;5047437;28;20048;-68
2021/05/23 07:40:40;;;;;;;6.88;4.10;;;13.50;99.90;;;;;;5047504;28;20049;-69
2021/05/23 07:43:07;;;;;;;6.47;4.28;;;13.40;99.90;;;;;;5048687;28;20049;-70
2021/05/23 07:45:35;;;;;;;5.72;4.60;;;13.40;99.90;;;;;;5046343;28;20045;-68
2021/05/23 07:48:03;;;;;;;5.45;4.40;;;13.50;99.90;;;;;;5047502;28;20045;-69
2021/05/23 07:50:32;;;;;;;5.80;4.40;;;13.70;99.90;;;;;;5045885;28;20049;-69
2021/05/23 07:53:01;;;;;;;5.30;4.45;;;13.90;99.90;;;;;;5045471;28;20052;-68
2021/05/23 07:55:29;;;;;;;5.85;4.07;;;13.90;99.90;;;;;;5048607;28;20045;-68
2021/05/23 07:57:56;;;;;;;5.13;4.38;;;14.10;99.90;;;;;;5048927;28;20053;-66
2021/05/23 08:00:24;;;;;;;5.10;4.65;;;14.20;99.90;;;;;;5047108;28;20052;-68
2021/05/23 08:02:51;;;;;;;6.28;4.15;;;14.00;99.90;;;;;;5045641;28;20080;-68
2021/05/23 08:05:18;;;;;;;4.20;3.80;;;13.70;99.90;;;;;;5030845;28;20410;-69
2021/05/23 08:07:46;;;;;;;5.72;5.03;;;13.60;99.90;;;;;;5044034;28;20045;-67
2021/05/23 08:10:14;;;;;;;4.90;4.50;;;13.60;99.90;;;;;;5047955;28;20041;-68
2021/05/23 08:12:42;;;;;;;6.63;4.30;;;13.70;99.90;;;;;;5045680;28;20462;-70
2021/05/23 08:15:12;;;;;;;5.13;4.38;;;13.80;99.90;;;;;;5059325;28;20144;-69
2021/05/23 08:17:41;;;;;;;5.88;4.85;;;13.70;99.90;;;;;;5047546;28;20098;-69
2021/05/23 08:20:09;;;;;;;5.40;4.90;;;13.80;99.90;;;;;;5046022;28;20098;-70
2021/05/23 08:22:37;;;;;;;5.57;4.90;;;13.80;99.90;;;;;;5047501;28;20060;-69
2021/05/23 08:25:06;;;;;;;5.38;4.78;;;13.80;99.90;;;;;;5042249;28;20466;-70
2021/05/23 08:27:34;;;;;;;5.57;4.97;;;13.60;99.90;;;;;;5050593;28;20392;-68
2021/05/23 08:30:03;;;;;;;5.25;4.80;;;13.60;99.90;;;;;;5051528;28;20075;-68
2021/05/23 08:32:34;;;;;;;5.32;4.70;;;13.60;99.90;;;;;;5051089;28;20428;-68
2021/05/23 08:35:04;;;;;;;6.32;4.95;;;13.70;99.90;;;;;;5052061;28;20439;-68
2021/05/23 08:37:32;;;;;;;5.00;4.50;;;13.70;99.90;;;;;;5050625;28;20051;-69
2021/05/23 08:40:00;;;;;;;5.22;4.50;;;13.80;99.90;;;;;;5051083;28;20045;-69
2021/05/23 08:42:30;;;;;;;6.03;5.35;;;13.80;99.90;;;;;;5048661;28;20490;-69
2021/05/23 08:44:59;;;;;;;6.30;5.50;;;14.10;99.90;;;;;;5050490;28;20056;-69
2021/05/23 08:47:26;;;;;;;7.30;5.30;;;14.10;99.90;;;;;;5017530;28;20098;-69
2021/05/23 08:49:53;;;;;;;6.32;5.30;;;14.00;99.90;;;;;;5047001;28;20052;-69
2021/05/23 08:52:21;;;;;;;6.05;5.20;;;13.90;99.90;;;;;;5050775;28;20037;-69
2021/05/23 08:54:49;;;;;;;8.98;5.57;;;13.80;99.90;;;;;;5052335;28;20136;-69
2021/05/23 08:57:22;;;;;;;5.68;5.15;;;13.80;99.90;;;;;;5051498;28;20076;-69
2021/05/23 08:59:50;;;;;;;5.72;5.15;;;13.90;99.90;;;;;;5051060;28;20115;-69
2021/05/23 09:02:18;;;;;;;5.90;5.30;;;14.10;99.90;;;;;;5049246;28;20676;-68
2021/05/23 09:04:51;;;;;;;6.18;4.68;;;14.10;99.90;;;;;;5051452;28;20076;-68
2021/05/23 09:07:19;;;;;;;5.60;5.10;;;14.20;99.90;;;;;;5064243;28;20060;-69
2021/05/23 09:09:48;;;;;;;10.55;5.72;;;14.30;99.90;;;;;;5050613;28;20125;-69
2021/05/23 09:12:18;;;;;;;6.13;5.45;;;14.20;99.90;;;;;;5028217;28;20084;-69
2021/05/23 09:14:49;;;;;;;7.05;5.38;;;14.10;99.90;;;;;;5044611;28;20080;-69
2021/05/23 09:17:23;;;;;;;6.43;5.03;;;14.00;99.90;;;;;;5047354;28;20049;-68
2021/05/23 09:19:52;;;;;;;5.80;4.90;;;14.10;99.90;;;;;;5045677;28;20103;-69
2021/05/23 09:22:23;;;;;;;8.23;5.13;;;14.00;99.90;;;;;;5050433;28;20088;-68
2021/05/23 09:24:57;;;;;;;6.43;4.90;;;13.50;99.90;;;;;;5051283;28;20080;-70
2021/05/23 09:27:28;;;;;;;5.85;5.20;;;13.20;99.90;;;;;;5047239;28;20041;-68
2021/05/23 09:30:20;;;;;;;6.50;4.88;;;13.30;99.90;;;;;;5048237;28;20041;-68
2021/05/23 09:32:50;;;;;;;8.60;4.72;;;13.50;99.90;;;;;;5049124;28;20167;-68
2021/05/23 09:35:17;;;;;;;4.75;4.20;;;13.70;99.90;;;;;;5045800;28;20550;-69
2021/05/23 09:37:56;;;;;;;6.80;5.13;;;14.00;99.90;;;;;;5049719;28;20066;-68
2021/05/23 09:40:25;;;;;;;6.55;4.68;;;14.10;99.90;;;;;;5048014;28;20503;-69
2021/05/23 09:42:54;;;;;;;8.15;4.85;;;14.20;99.90;;;;;;5049734;28;20049;-69
2021/05/23 09:45:24;;;;;;;6.35;4.18;;;14.70;99.90;;;;;;5049876;28;20142;-68
2021/05/23 09:47:57;;;;;;;5.75;5.07;;;15.30;99.90;;;;;;5050321;28;20041;-69
2021/05/23 09:50:52;;;;;;;5.80;5.20;;;15.30;99.90;;;;;;5049300;28;20151;-68
2021/05/23 09:53:21;;;;;;;7.28;5.30;;;15.20;99.90;;;;;;5048752;28;20728;-68
2021/05/23 09:55:51;;;;;;;6.35;5.55;;;15.00;99.90;;;;;;5049543;28;20084;-69
2021/05/23 09:58:22;;;;;;;10.40;5.60;;;14.90;99.90;;;;;;5048085;28;20057;-69
2021/05/23 10:00:49;;;;;;;6.10;5.60;;;14.80;99.90;;;;;;5051707;28;20131;-69
2021/05/23 10:03:28;;;;;;;5.85;5.03;;;14.90;99.90;;;;;;5049720;28;20071;-69
2021/05/23 10:05:56;;;;;;;6.20;5.10;;;14.90;99.90;;;;;;5048683;28;20057;-69
2021/05/23 10:08:24;;;;;;;5.80;5.40;;;14.60;99.90;;;;;;5050459;28;20461;-69
2021/05/23 10:10:53;;;;;;;6.25;5.68;;;14.70;99.90;;;;;;5049732;28;20063;-68
2021/05/23 10:13:22;;;;;;;6.22;5.35;;;14.60;99.90;;;;;;5051269;28;20094;-68
2021/05/23 10:15:49;;;;;;;5.70;5.30;;;14.60;99.90;;;;;;5050247;28;20076;-68
2021/05/23 10:18:27;;;;;;;5.90;5.35;;;14.60;99.90;;;;;;5046584;28;20044;-69
2021/05/23 10:20:57;;;;;;;5.40;5.00;;;14.90;99.90;;;;;;5047835;28;20060;-68
2021/05/23 10:23:38;;;;;;;5.72;5.28;;;15.10;99.90;;;;;;5032992;28;20156;-69
2021/05/23 10:26:10;;;;;;;6.03;5.43;;;15.50;99.90;;;;;;5050185;28;20079;-68
2021/05/23 10:28:40;;;;;;;6.35;5.80;;;16.10;99.90;;;;;;5014604;28;20140;-69
2021/05/23 10:31:14;;;;;;;7.13;6.50;;;16.20;99.90;;;;;;5050369;28;20063;-69
2021/05/23 10:33:52;;;;;;;6.85;6.35;;;16.60;99.90;;;;;;5043813;28;20041;-69
2021/05/23 10:36:39;;;;;;;7.00;6.50;;;16.90;99.90;;;;;;5049326;28;20053;-69
2021/05/23 10:39:15;;;;;;;6.70;6.10;;;16.60;99.90;;;;;;5048807;28;20045;-68
2021/05/23 10:41:43;;;;;;;7.40;6.53;;;16.10;99.90;;;;;;5049368;28;20047;-69
2021/05/23 10:44:26;;;;;;;6.75;6.25;;;15.60;99.90;;;;;;5046632;28;20067;-69
2021/05/23 10:46:54;;;;;;;7.00;6.40;;;15.70;99.90;;;;;;5048682;28;20272;-68
2021/05/23 10:49:21;;;;;;;7.07;6.40;;;15.90;99.90;;;;;;5047804;28;20043;-70
2021/05/23 10:51:56;;;;;;;7.40;6.78;;;15.60;99.90;;;;;;5047393;28;20534;-69
2021/05/23 10:54:24;;;;;;;6.90;6.30;;;15.60;99.90;;;;;;5046718;28;20045;-69
2021/05/23 10:56:59;;;;;;;7.45;6.85;;;15.70;99.90;;;;;;5031331;28;20950;-69
2021/05/23 10:59:32;;;;;;;7.40;6.70;;;16.00;99.90;;;;;;5049263;28;20069;-68
2021/05/23 11:01:59;;;;;;;7.55;6.93;;;16.50;99.90;;;;;;5047511;28;20052;-69
2021/05/23 11:04:39;;;;;;;6.90;6.30;;;16.80;99.90;;;;;;5049455;28;20045;-67
2021/05/23 11:07:12;;;;;;;6.88;6.30;;;16.50;99.90;;;;;;5048992;28;20445;-68
2021/05/23 11:09:43;;;;;;;7.10;6.55;;;16.40;99.90;;;;;;5045277;28;20550;-68
2021/05/23 11:12:13;;;;;;;9.80;8.77;;;16.00;99.90;;;;;;5050914;28;20114;-68
2021/05/23 11:14:52;;;;;;;7.30;6.70;;;15.80;99.90;;;;;;5046193;28;20095;-68
2021/05/23 11:17:21;;;;;;;9.15;8.18;;;16.00;99.90;;;;;;5048117;28;20479;-68
2021/05/23 11:19:48;;;;;;;6.97;6.47;;;16.10;99.90;;;;;;5049374;28;20174;-68
2021/05/23 11:22:16;;;;;;;6.75;6.30;;;16.10;99.90;;;;;;5048426;28;20072;-68
2021/05/23 11:24:45;;;;;;;6.93;6.30;;;16.20;99.90;;;;;;5032278;28;20045;-68
2021/05/23 11:27:18;;;;;;;8.35;6.50;;;16.20;99.90;;;;;;5046014;28;20077;-70
2021/05/23 11:29:50;;;;;;;6.93;6.32;;;16.40;99.90;;;;;;5032880;28;20364;-67
2021/05/23 11:32:18;;;;;;;6.82;6.15;;;16.70;99.90;;;;;;5047209;28;21250;-68
2021/05/23 11:34:46;;;;;;;6.85;6.30;;;16.90;99.90;;;;;;5047632;28;20041;-68
2021/05/23 11:37:14;;;;;;;6.68;6.10;;;16.80;99.90;;;;;;5047152;28;20045;-68
2021/05/23 11:39:41;;;;;;;7.00;6.35;;;16.70;99.90;;;;;;5046308;28;20510;-68
2021/05/23 11:42:10;;;;;;;6.53;6.03;;;17.00;99.90;;;;;;5044955;28;20052;-68
2021/05/23 11:44:40;;;;;;;7.10;6.50;;;17.20;99.90;;;;;;5048424;28;20110;-69
2021/05/23 11:47:08;;;;;;;8.88;6.97;;;17.50;99.90;;;;;;5044885;28;20422;-68
2021/05/23 11:49:44;;;;;;;7.32;6.70;;;17.60;99.90;;;;;;5049743;28;20045;-67
2021/05/23 11:52:16;;;;;;;7.05;6.40;;;17.20;99.90;;;;;;5046089;28;20041;-68
2021/05/23 11:54:43;;;;;;;7.00;6.40;;;17.70;99.90;;;;;;5048196;28;20857;-68
2021/05/23 11:57:10;;;;;;;6.90;6.40;;;17.60;99.90;;;;;;5045640;28;20053;-68
2021/05/23 11:59:37;;;;;;;6.95;6.43;;;17.70;99.90;;;;;;5048405;28;20045;-67
2021/05/23 12:02:05;;;;;;;7.60;6.93;;;17.90;99.90;;;;;;5047222;28;20073;-68
2021/05/23 12:04:32;;;;;;;7.00;6.50;;;17.80;99.90;;;;;;5047934;28;20633;-68
2021/05/23 12:07:00;;;;;;;9.38;6.97;;;17.90;99.90;;;;;;5048959;28;20453;-68
2021/05/23 12:09:30;;;;;;;7.30;6.60;;;17.50;99.90;;;;;;5047375;28;20068;-68
2021/05/23 12:11:59;;;;;;;7.88;7.18;;;17.40;99.90;;;;;;5046148;28;20401;-68
2021/05/23 12:14:37;;;;;;;7.80;7.10;;;17.40;99.90;;;;;;5043276;28;20380;-68
2021/05/23 12:17:07;;;;;;;7.30;6.80;;;17.30;99.90;;;;;;5045750;28;20037;-68
2021/05/23 12:19:48;;;;;;;7.57;6.93;;;17.30;99.90;;;;;;5045232;28;20068;-66
2021/05/23 12:22:19;;;;;;;7.15;6.63;;;17.00;99.90;;;;;;5046140;28;20049;-67
2021/05/23 12:24:48;;;;;;;7.60;7.00;;;16.80;99.90;;;;;;5044028;28;20458;-69
2021/05/23 12:27:34;;;;;;;7.35;6.70;;;16.90;99.90;;;;;;5031278;28;20123;-69
2021/05/23 12:30:13;;;;;;;7.78;7.07;;;16.90;99.90;;;;;;5046898;28;20054;-68
2021/05/23 12:32:45;;;;;;;7.90;7.30;;;16.90;99.90;;;;;;5044014;28;20049;-68
2021/05/23 12:35:20;;;;;;;7.30;6.70;;;16.90;99.90;;;;;;5062764;28;20274;-68
2021/05/23 12:37:49;;;;;;;7.65;7.05;;;17.00;99.90;;;;;;5048629;28;20048;-68
2021/05/23 12:40:31;;;;;;;8.02;7.50;;;17.10;99.90;;;;;;5047048;28;20044;-68
2021/05/23 12:43:15;;;;;;;8.50;7.80;;;16.90;99.90;;;;;;5047217;28;20068;-68
2021/05/23 12:46:00;;;;;;;8.45;7.60;;;16.60;99.90;;;;;;5044141;28;20040;-68
2021/05/23 12:48:34;;;;;;;7.88;7.28;;;16.30;99.90;;;;;;5061604;28;20543;-68
2021/05/23 12:51:13;;;;;;;7.88;7.28;;;15.90;99.90;;;;;;5049932;28;20045;-68
2021/05/23 12:53:48;;;;;;;8.00;7.32;;;15.70;99.90;;;;;;5057077;28;20099;-68
2021/05/23 12:56:18;;;;;;;8.07;7.30;;;15.50;99.90;;;;;;5069925;28;20096;-68
2021/05/23 12:59:02;;;;;;;8.10;7.32;;;15.50;99.90;;;;;;5068515;28;20080;-68
2021/05/23 13:01:41;;;;;;;7.53;6.93;;;15.70;99.90;;;;;;5056957;28;20079;-68